createdAt,value
2022-12-29T00:01:12.709Z,9.85
2022-12-29T00:03:35.221Z,9.73
2022-12-29T00:05:58.592Z,8.98
2022-12-29T00:08:20.973Z,9.15
2022-12-29T00:10:43.332Z,9.30
2022-12-29T00:13:23.939Z,7.93
2022-12-29T00:15:46.294Z,9.45
2022-12-29T00:18:09.101Z,9.40
2022-12-29T00:20:53.268Z,8.77
2022-12-29T00:23:34.218Z,8.30
2022-12-29T00:26:15.371Z,9.23
2022-12-29T00:28:56.368Z,8.38
2022-12-29T00:31:37.308Z,8.73
2022-12-29T00:34:18.522Z,8.18
2022-12-29T00:36:41.484Z,8.05
2022-12-29T00:39:29.520Z,7.90
2022-12-29T00:42:10.713Z,7.18
2022-12-29T00:44:33.085Z,7.45
2022-12-29T00:49:34.088Z,8.52
2022-12-29T00:51:58.413Z,8.25
2022-12-29T00:54:20.845Z,8.60
2022-12-29T00:56:43.253Z,8.93
2022-12-29T00:59:07.955Z,9.07
2022-12-29T01:01:30.947Z,8.43
2022-12-29T01:03:57.385Z,8.48
2022-12-29T01:06:22.595Z,8.38
2022-12-29T01:08:44.937Z,8.02
2022-12-29T01:11:09.572Z,7.87
2022-12-29T01:13:31.987Z,8.23
2022-12-29T01:15:54.792Z,8.15
2022-12-29T01:18:17.179Z,8.38
2022-12-29T01:20:40.614Z,8.52
2022-12-29T01:23:02.961Z,7.53
2022-12-29T01:25:25.319Z,8.43
2022-12-29T01:27:47.679Z,8.03
2022-12-29T01:30:10.691Z,8.17
2022-12-29T01:32:33.085Z,7.20
2022-12-29T01:34:55.458Z,7.40
2022-12-29T01:37:17.913Z,7.70
2022-12-29T01:39:40.311Z,7.55
2022-12-29T01:42:02.666Z,7.15
2022-12-29T01:44:51.517Z,7.77
2022-12-29T01:47:31.711Z,8.63
2022-12-29T01:49:56.625Z,7.38
2022-12-29T01:52:18.953Z,6.97
2022-12-29T01:54:44.935Z,6.87
2022-12-29T01:57:12.880Z,7.70
2022-12-29T01:59:39.298Z,8.55
2022-12-29T02:02:01.770Z,7.32
2022-12-29T02:04:25.114Z,7.15
2022-12-29T02:09:29.653Z,6.72
2022-12-29T02:11:52.348Z,6.67
2022-12-29T02:14:15.189Z,6.13
2022-12-29T02:17:26.456Z,6.30
2022-12-29T02:20:35.845Z,5.90
2022-12-29T02:23:25.470Z,6.10
2022-12-29T02:26:28.395Z,6.30
2022-12-29T02:29:34.831Z,6.50
2022-12-29T02:32:27.269Z,6.22
2022-12-29T02:35:06.235Z,6.25
2022-12-29T02:37:43.394Z,6.07
2022-12-29T02:40:07.668Z,6.72
2022-12-29T02:42:50.443Z,6.05
2022-12-29T02:45:58.207Z,6.05
2022-12-29T02:48:32.522Z,6.10
2022-12-29T02:51:02.148Z,5.70
2022-12-29T02:53:44.455Z,5.70
2022-12-29T02:56:07.066Z,5.88
2022-12-29T02:58:29.402Z,6.05
2022-12-29T03:01:32.983Z,6.20
2022-12-29T03:07:10.541Z,6.05
2022-12-29T03:09:55.333Z,6.15
2022-12-29T03:13:11.983Z,6.10
2022-12-29T03:16:04.941Z,6.10
2022-12-29T03:18:42.285Z,5.70
2022-12-29T03:22:02.234Z,5.72
2022-12-29T03:24:52.299Z,5.53
2022-12-29T03:27:20.109Z,5.35
2022-12-29T03:29:53.316Z,5.90
2022-12-29T03:32:16.327Z,5.55
2022-12-29T03:34:40.668Z,6.63
2022-12-29T03:37:11.396Z,5.75
2022-12-29T03:39:33.855Z,5.60
2022-12-29T03:42:02.920Z,5.88
2022-12-29T03:44:43.317Z,5.43
2022-12-29T03:47:06.381Z,5.68
2022-12-29T03:49:29.841Z,5.95
2022-12-29T03:51:52.188Z,5.33
2022-12-29T03:54:14.535Z,6.05
2022-12-29T03:56:36.884Z,5.97
2022-12-29T03:58:59.251Z,5.63
2022-12-29T04:01:21.694Z,5.57
2022-12-29T04:03:44.138Z,5.07
2022-12-29T04:06:06.887Z,5.93
2022-12-29T04:10:52.139Z,5.05
2022-12-29T04:13:14.494Z,5.60
2022-12-29T04:15:37.121Z,5.25
2022-12-29T04:17:59.820Z,5.28
2022-12-29T04:20:40.531Z,5.38
2022-12-29T04:23:04.335Z,5.22
2022-12-29T04:25:26.791Z,4.90
2022-12-29T04:27:49.112Z,5.32
2022-12-29T04:30:12.257Z,5.03
2022-12-29T04:34:57.026Z,4.65
2022-12-29T04:37:19.426Z,4.67
2022-12-29T04:39:41.783Z,5.28
2022-12-29T04:42:04.320Z,4.70
2022-12-29T04:44:26.674Z,4.93
2022-12-29T04:46:49.081Z,4.70
2022-12-29T04:49:11.468Z,4.50
2022-12-29T04:51:33.834Z,4.95
2022-12-29T04:53:56.219Z,4.53
2022-12-29T04:56:18.578Z,4.73
2022-12-29T04:58:41.179Z,4.77
2022-12-29T05:01:03.546Z,4.63
2022-12-29T05:03:25.915Z,5.10
2022-12-29T05:05:48.356Z,5.47
2022-12-29T05:08:10.713Z,4.47
2022-12-29T05:10:33.124Z,4.93
2022-12-29T05:12:55.533Z,5.27
2022-12-29T05:15:18.007Z,5.25
2022-12-29T05:20:04.671Z,4.70
2022-12-29T05:22:27.075Z,4.45
2022-12-29T05:24:49.433Z,4.60
2022-12-29T05:27:11.785Z,4.90
2022-12-29T05:29:34.151Z,4.00
2022-12-29T05:31:56.640Z,4.57
2022-12-29T05:34:19.116Z,3.83
2022-12-29T05:36:41.458Z,4.07
2022-12-29T05:39:04.204Z,4.18
2022-12-29T05:41:26.920Z,4.05
2022-12-29T05:43:49.391Z,3.95
2022-12-29T05:46:11.814Z,4.03
2022-12-29T05:48:37.816Z,4.20
2022-12-29T05:51:00.706Z,4.05
2022-12-29T05:53:23.113Z,4.43
2022-12-29T05:55:49.228Z,4.88
2022-12-29T05:58:11.726Z,5.07
2022-12-29T06:00:34.118Z,4.87
2022-12-29T06:02:56.637Z,4.30
2022-12-29T06:05:19.090Z,4.55
2022-12-29T06:07:41.514Z,4.18
2022-12-29T06:10:05.778Z,4.85
2022-12-29T06:12:28.218Z,3.85
2022-12-29T06:14:50.698Z,4.47
2022-12-29T06:17:13.057Z,4.17
2022-12-29T06:19:35.426Z,4.63
2022-12-29T06:21:57.764Z,4.60
2022-12-29T06:24:20.675Z,4.33
2022-12-29T06:26:43.104Z,5.20
2022-12-29T06:29:05.863Z,4.75
2022-12-29T06:31:28.234Z,4.47
2022-12-29T06:33:50.561Z,4.07
2022-12-29T06:36:12.963Z,3.97
2022-12-29T06:38:36.324Z,4.10
2022-12-29T06:43:20.999Z,4.70
2022-12-29T06:45:43.667Z,4.90
2022-12-29T06:48:06.304Z,4.97
2022-12-29T06:50:28.713Z,4.90
2022-12-29T06:52:51.107Z,5.38
2022-12-29T06:55:13.498Z,4.57
2022-12-29T06:57:35.835Z,4.37
2022-12-29T06:59:58.165Z,4.83
2022-12-29T07:02:20.803Z,4.27
2022-12-29T07:04:43.323Z,4.60
2022-12-29T07:07:05.750Z,4.80
2022-12-29T07:09:28.088Z,4.03
2022-12-29T07:11:50.440Z,4.65
2022-12-29T07:14:13.095Z,5.68
2022-12-29T07:16:35.571Z,4.78
2022-12-29T07:19:00.076Z,4.38
2022-12-29T07:21:22.493Z,4.05
2022-12-29T07:23:44.939Z,4.30
2022-12-29T07:26:08.699Z,3.93
2022-12-29T07:28:31.270Z,4.25
2022-12-29T07:30:53.652Z,4.50
2022-12-29T07:33:16.003Z,4.95
2022-12-29T07:35:38.350Z,4.67
2022-12-29T07:38:00.698Z,4.50
2022-12-29T07:40:23.055Z,4.53
2022-12-29T07:42:45.452Z,3.83
2022-12-29T07:45:10.214Z,4.83
2022-12-29T07:47:33.038Z,5.15
2022-12-29T07:49:55.394Z,4.50
2022-12-29T07:52:17.728Z,4.43
2022-12-29T07:54:23.580Z,3.88
2022-12-29T07:56:26.239Z,3.80
2022-12-29T07:58:28.349Z,4.63
2022-12-29T08:00:30.523Z,4.30
2022-12-29T08:04:35.403Z,7.47
2022-12-29T08:06:38.879Z,5.45
2022-12-29T08:08:41.233Z,4.95
2022-12-29T08:10:43.720Z,6.30
2022-12-29T08:12:46.514Z,4.93
2022-12-29T08:14:49.063Z,5.10
2022-12-29T08:18:53.798Z,4.43
2022-12-29T08:20:56.877Z,4.20
2022-12-29T08:22:59.087Z,4.18
2022-12-29T08:25:01.649Z,4.68
2022-12-29T08:27:13.124Z,4.13
2022-12-29T08:29:22.377Z,3.83
2022-12-29T08:31:25.078Z,3.83
2022-12-29T08:33:27.575Z,4.25
2022-12-29T08:35:29.609Z,4.50
2022-12-29T08:37:34.579Z,4.50
2022-12-29T08:39:36.843Z,5.10
2022-12-29T08:41:39.522Z,4.18
2022-12-29T08:43:41.645Z,4.22
2022-12-29T08:45:44.655Z,4.05
2022-12-29T08:47:46.721Z,4.25
2022-12-29T08:49:49.199Z,3.95
2022-12-29T08:51:51.455Z,3.70
2022-12-29T08:53:54.993Z,5.45
2022-12-29T08:56:04.616Z,4.28
2022-12-29T08:58:07.497Z,5.63
2022-12-29T09:00:10.807Z,6.22
2022-12-29T09:02:14.676Z,4.50
2022-12-29T09:04:20.590Z,4.47
2022-12-29T09:06:23.875Z,3.72
2022-12-29T09:08:26.463Z,3.63
2022-12-29T09:10:28.734Z,3.60
2022-12-29T09:12:36.081Z,3.60
2022-12-29T09:14:38.817Z,3.47
2022-12-29T09:16:59.323Z,3.70
2022-12-29T09:19:02.325Z,3.75
2022-12-29T09:21:06.243Z,3.50
2022-12-29T09:23:09.330Z,3.13
2022-12-29T09:27:15.673Z,3.28
2022-12-29T09:29:18.765Z,3.40
2022-12-29T09:31:21.848Z,3.63
2022-12-29T09:33:24.518Z,3.40
2022-12-29T09:35:26.698Z,3.42
2022-12-29T09:37:29.407Z,3.67
2022-12-29T09:39:32.393Z,4.57
2022-12-29T09:42:14.582Z,3.83
2022-12-29T09:44:27.235Z,4.00
2022-12-29T09:46:40.408Z,4.85
2022-12-29T09:48:46.679Z,4.43
2022-12-29T09:50:54.579Z,5.07
2022-12-29T09:53:45.301Z,5.10
2022-12-29T09:55:51.620Z,5.45
2022-12-29T09:57:59.009Z,5.38
2022-12-29T10:00:24.449Z,6.43
2022-12-29T10:02:41.475Z,4.82
2022-12-29T10:04:44.202Z,6.22
2022-12-29T10:07:29.952Z,7.53
2022-12-29T10:10:11.550Z,6.13
2022-12-29T10:12:35.543Z,5.28
2022-12-29T10:15:12.478Z,4.10
2022-12-29T10:17:50.669Z,5.18
2022-12-29T10:20:25.746Z,3.70
2022-12-29T10:22:58.832Z,3.88
2022-12-29T10:25:03.743Z,4.22
2022-12-29T10:27:08.972Z,3.78
2022-12-29T10:29:23.309Z,4.38
2022-12-29T10:31:36.978Z,3.70
2022-12-29T10:33:42.649Z,3.40
2022-12-29T10:35:46.561Z,3.97
2022-12-29T10:38:04.224Z,3.40
2022-12-29T10:40:27.336Z,4.13
2022-12-29T10:42:41.694Z,4.15
2022-12-29T10:44:45.127Z,6.80
2022-12-29T10:48:59.001Z,6.03
2022-12-29T10:53:06.431Z,4.97
2022-12-29T10:55:37.153Z,4.40
2022-12-29T10:57:45.369Z,4.20
2022-12-29T10:59:47.907Z,4.50
2022-12-29T11:04:56.755Z,4.13
2022-12-29T11:07:02.526Z,3.65
2022-12-29T11:09:16.270Z,4.22
2022-12-29T11:11:27.250Z,4.13
2022-12-29T11:13:38.837Z,4.43
2022-12-29T11:15:42.102Z,4.50
2022-12-29T11:17:46.703Z,4.15
2022-12-29T11:19:49.674Z,3.67
2022-12-29T11:21:51.893Z,4.70
2022-12-29T11:24:21.412Z,4.80
2022-12-29T11:26:30.152Z,4.00
2022-12-29T11:28:36.069Z,4.50
2022-12-29T11:30:38.261Z,3.58
2022-12-29T11:32:41.227Z,4.45
2022-12-29T11:34:43.522Z,4.53
2022-12-29T11:36:47.277Z,4.55
2022-12-29T11:38:52.258Z,4.35
2022-12-29T11:40:55.137Z,4.00
2022-12-29T11:43:05.427Z,4.63
2022-12-29T11:45:15.264Z,5.22
2022-12-29T11:47:30.397Z,6.47
2022-12-29T11:49:33.045Z,5.22
2022-12-29T11:51:56.393Z,5.32
2022-12-29T11:56:06.746Z,4.97
2022-12-29T11:58:13.634Z,7.13
2022-12-29T12:00:26.216Z,8.05
2022-12-29T12:02:40.548Z,9.02
2022-12-29T12:04:44.913Z,5.43
2022-12-29T12:09:17.693Z,6.30
2022-12-29T12:11:43.128Z,7.03
2022-12-29T12:14:22.629Z,5.22
2022-12-29T12:16:50.006Z,5.55
2022-12-29T12:19:33.760Z,7.13
2022-12-29T12:22:23.217Z,4.80
2022-12-29T12:25:16.474Z,5.18
2022-12-29T12:27:59.855Z,5.57
2022-12-29T12:30:24.913Z,4.43
2022-12-29T12:33:00.733Z,4.30
2022-12-29T12:35:48.376Z,4.63
2022-12-29T12:38:28.843Z,3.80
2022-12-29T12:41:21.873Z,3.45
2022-12-29T12:43:30.079Z,3.92
2022-12-29T12:46:04.879Z,3.88
2022-12-29T12:48:37.867Z,3.95
2022-12-29T12:51:34.023Z,3.90
2022-12-29T12:54:32.474Z,5.57
2022-12-29T12:57:15.932Z,5.03
2022-12-29T13:00:05.903Z,4.95
2022-12-29T13:03:13.843Z,4.45
2022-12-29T13:06:04.122Z,4.60
2022-12-29T13:08:56.529Z,4.47
2022-12-29T13:11:43.453Z,4.32
2022-12-29T13:14:27.420Z,4.25
2022-12-29T13:17:04.574Z,3.83
2022-12-29T13:19:55.095Z,4.75
2022-12-29T13:22:43.890Z,4.10
2022-12-29T13:25:46.327Z,4.38
2022-12-29T13:28:43.637Z,4.07
2022-12-29T13:31:44.546Z,4.43
2022-12-29T13:34:30.536Z,4.97
2022-12-29T13:37:05.672Z,4.80
2022-12-29T13:39:33.486Z,4.20
2022-12-29T13:41:58.875Z,4.63
2022-12-29T13:44:46.688Z,5.28
2022-12-29T13:47:15.129Z,4.78
2022-12-29T13:49:37.603Z,4.43
2022-12-29T13:52:10.429Z,3.97
2022-12-29T13:55:29.008Z,4.40
2022-12-29T13:58:13.643Z,3.97
2022-12-29T14:01:09.450Z,5.40
2022-12-29T14:04:03.965Z,3.88
2022-12-29T14:06:34.808Z,4.85
2022-12-29T14:09:02.675Z,5.15
2022-12-29T14:11:41.861Z,5.30
2022-12-29T14:14:31.096Z,4.25
2022-12-29T14:16:53.962Z,4.90
2022-12-29T14:19:22.695Z,5.03
2022-12-29T14:22:03.250Z,4.45
2022-12-29T14:24:37.440Z,4.57
2022-12-29T14:26:59.887Z,4.45
2022-12-29T14:29:25.208Z,4.73
2022-12-29T14:31:47.615Z,5.00
2022-12-29T14:34:13.518Z,5.17
2022-12-29T14:36:54.783Z,6.07
2022-12-29T14:39:42.595Z,6.07
2022-12-29T14:42:11.611Z,5.57
2022-12-29T14:44:34.472Z,5.72
2022-12-29T14:46:58.545Z,5.70
2022-12-29T14:49:24.346Z,4.97
2022-12-29T14:51:46.739Z,5.45
2022-12-29T14:54:50.725Z,5.43
2022-12-29T14:57:21.867Z,5.28
2022-12-29T14:59:44.244Z,5.28
2022-12-29T15:02:17.997Z,4.70
2022-12-29T15:04:40.878Z,5.70
2022-12-29T15:07:04.480Z,5.68
2022-12-29T15:09:37.563Z,6.35
2022-12-29T15:12:08.293Z,5.57
2022-12-29T15:14:41.183Z,5.22
2022-12-29T15:17:11.632Z,5.50
2022-12-29T15:19:33.989Z,5.15
2022-12-29T15:21:56.960Z,5.37
2022-12-29T15:24:19.346Z,4.88
2022-12-29T15:26:47.341Z,4.60
2022-12-29T15:29:39.438Z,4.55
2022-12-29T15:32:11.023Z,4.97
2022-12-29T15:34:33.509Z,4.50
2022-12-29T15:36:55.965Z,4.68
2022-12-29T15:39:24.915Z,4.03
2022-12-29T15:42:46.607Z,4.80
2022-12-29T15:45:12.481Z,4.75
2022-12-29T15:47:34.830Z,4.80
2022-12-29T15:50:16.906Z,4.25
2022-12-29T15:52:39.231Z,4.38
2022-12-29T15:55:01.791Z,5.23
2022-12-29T15:57:30.632Z,4.80
2022-12-29T15:59:53.199Z,4.55
2022-12-29T16:02:15.759Z,5.50
2022-12-29T16:04:53.999Z,5.10
2022-12-29T16:07:41.158Z,4.68
2022-12-29T16:10:04.887Z,4.72
2022-12-29T16:12:35.622Z,5.82
2022-12-29T16:15:28.731Z,5.18
2022-12-29T16:17:52.740Z,5.22
2022-12-29T16:20:32.745Z,5.25
2022-12-29T16:22:57.008Z,5.38
2022-12-29T16:25:35.499Z,4.35
2022-12-29T16:27:58.029Z,5.65
2022-12-29T16:30:24.276Z,5.50
2022-12-29T16:32:52.527Z,6.15
2022-12-29T16:35:23.626Z,5.65
2022-12-29T16:37:46.187Z,6.70
2022-12-29T16:40:29.425Z,5.82
2022-12-29T16:42:52.603Z,6.82
2022-12-29T16:47:43.605Z,6.43
2022-12-29T16:50:28.049Z,6.80
2022-12-29T16:52:50.941Z,6.40
2022-12-29T16:55:18.204Z,7.20
2022-12-29T16:57:40.569Z,6.75
2022-12-29T17:00:18.274Z,6.83
2022-12-29T17:02:46.075Z,8.18
2022-12-29T17:05:12.308Z,8.13
2022-12-29T17:07:34.678Z,7.90
2022-12-29T17:09:57.188Z,9.00
2022-12-29T17:12:25.005Z,7.95
2022-12-29T17:15:27.897Z,7.60
2022-12-29T17:17:50.622Z,8.10
2022-12-29T17:20:24.169Z,8.18
2022-12-29T17:25:17.010Z,7.20
2022-12-29T17:27:53.993Z,6.93
2022-12-29T17:30:18.688Z,7.43
2022-12-29T17:32:42.026Z,7.63
2022-12-29T17:37:35.446Z,7.75
2022-12-29T17:39:57.937Z,7.28
2022-12-29T17:42:20.615Z,7.60
2022-12-29T17:44:43.392Z,7.25
2022-12-29T17:47:10.329Z,7.55
2022-12-29T17:49:32.719Z,7.75
2022-12-29T17:51:55.128Z,7.53
2022-12-29T17:54:25.404Z,6.40
2022-12-29T17:56:47.767Z,7.60
2022-12-29T17:59:14.173Z,7.73
2022-12-29T18:01:40.992Z,7.40
2022-12-29T18:04:06.024Z,7.38
2022-12-29T18:06:28.528Z,7.18
2022-12-29T18:08:50.954Z,7.57
2022-12-29T18:11:25.919Z,7.38
2022-12-29T18:13:48.334Z,7.68
2022-12-29T18:16:12.276Z,7.27
2022-12-29T18:18:34.936Z,7.63
2022-12-29T18:20:59.346Z,7.55
2022-12-29T18:23:27.408Z,6.95
2022-12-29T18:25:55.130Z,7.57
2022-12-29T18:28:17.529Z,6.75
2022-12-29T18:30:39.891Z,7.90
2022-12-29T18:33:02.312Z,7.45
2022-12-29T18:35:40.889Z,7.80
2022-12-29T18:38:03.385Z,7.47
2022-12-29T18:40:06.399Z,7.05
2022-12-29T18:42:10.171Z,8.25
2022-12-29T18:44:13.521Z,6.80
2022-12-29T18:46:22.162Z,7.18
2022-12-29T18:48:25.167Z,7.35
2022-12-29T18:50:27.601Z,8.25
2022-12-29T18:52:30.053Z,8.70
2022-12-29T18:54:33.048Z,9.43
2022-12-29T18:56:35.922Z,8.55
2022-12-29T18:58:38.889Z,7.55
2022-12-29T19:00:41.543Z,8.55
2022-12-29T19:02:45.432Z,8.93
2022-12-29T19:04:52.827Z,8.05
2022-12-29T19:06:55.766Z,8.02
2022-12-29T19:08:58.276Z,8.77
2022-12-29T19:11:00.685Z,7.75
2022-12-29T19:13:03.023Z,8.15
2022-12-29T19:15:07.230Z,8.15
2022-12-29T19:17:12.134Z,9.85
2022-12-29T19:19:16.622Z,9.18
2022-12-29T19:21:20.177Z,7.95
2022-12-29T19:23:24.937Z,7.30
2022-12-29T19:25:28.065Z,7.20
2022-12-29T19:27:31.823Z,7.32
2022-12-29T19:29:35.148Z,7.63
2022-12-29T19:31:38.774Z,7.65
2022-12-29T19:33:41.183Z,7.60
2022-12-29T19:37:46.994Z,7.68
2022-12-29T19:39:49.179Z,7.15
2022-12-29T19:41:51.574Z,7.63
2022-12-29T19:43:54.128Z,7.57
2022-12-29T19:47:59.536Z,8.57
2022-12-29T19:52:05.024Z,8.70
2022-12-29T19:54:08.038Z,8.40
2022-12-29T19:58:13.250Z,7.50
2022-12-29T20:00:16.647Z,7.57
2022-12-29T20:02:24.982Z,7.03
2022-12-29T20:04:27.363Z,6.10
2022-12-29T20:06:29.883Z,6.88
2022-12-29T20:08:32.819Z,7.55
2022-12-29T20:10:35.619Z,6.45
2022-12-29T20:12:38.523Z,7.30
2022-12-29T20:14:41.967Z,7.45
2022-12-29T20:17:08.921Z,8.07
2022-12-29T20:19:07.127Z,7.22
2022-12-29T20:21:13.581Z,7.00
2022-12-29T20:23:15.696Z,7.00
2022-12-29T20:25:44.350Z,7.15
2022-12-29T20:27:40.554Z,7.60
2022-12-29T20:31:46.701Z,7.95
2022-12-29T20:33:49.601Z,7.07
2022-12-29T20:35:52.212Z,7.63
2022-12-29T20:37:54.572Z,9.45
2022-12-29T20:39:57.444Z,8.95
2022-12-29T20:41:59.895Z,10.63
2022-12-29T20:44:05.314Z,14.32
2022-12-29T20:46:08.271Z,12.07
2022-12-29T20:48:10.570Z,10.57
2022-12-29T20:52:15.965Z,8.00
2022-12-29T20:54:18.330Z,9.18
2022-12-29T20:56:24.202Z,7.70
2022-12-29T20:58:27.126Z,6.82
2022-12-29T21:00:30.683Z,8.05
2022-12-29T21:02:33.339Z,7.18
2022-12-29T21:05:05.564Z,7.55
2022-12-29T21:06:58.722Z,6.93
2022-12-29T21:09:01.364Z,8.38
2022-12-29T21:11:05.138Z,8.07
2022-12-29T21:13:07.416Z,7.30
2022-12-29T21:15:10.380Z,7.15
2022-12-29T21:19:16.171Z,8.45
2022-12-29T21:21:21.639Z,8.95
2022-12-29T21:23:25.541Z,7.20
2022-12-29T21:25:38.641Z,7.50
2022-12-29T21:27:44.561Z,7.28
2022-12-29T21:29:46.909Z,7.53
2022-12-29T21:31:49.505Z,6.68
2022-12-29T21:34:10.367Z,6.90
2022-12-29T21:36:31.130Z,7.32
2022-12-29T21:38:53.891Z,7.13
2022-12-29T21:41:17.191Z,7.63
2022-12-29T21:43:34.511Z,7.40
2022-12-29T21:45:36.650Z,8.85
2022-12-29T21:47:57.007Z,7.50
2022-12-29T21:49:59.222Z,8.45
2022-12-29T21:52:01.864Z,8.10
2022-12-29T21:54:23.052Z,8.35
2022-12-29T21:56:26.634Z,7.30
2022-12-29T22:01:08.501Z,8.43
2022-12-29T22:03:32.723Z,7.60
2022-12-29T22:05:53.923Z,8.00
2022-12-29T22:08:15.459Z,8.20
2022-12-29T22:10:38.151Z,8.07
2022-12-29T22:12:59.220Z,7.65
2022-12-29T22:15:02.009Z,7.07
2022-12-29T22:19:08.821Z,7.93
2022-12-29T22:21:11.697Z,10.30
2022-12-29T22:23:15.183Z,8.57
2022-12-29T22:25:18.472Z,9.43
2022-12-29T22:27:20.491Z,9.95
2022-12-29T22:29:23.513Z,8.65
2022-12-29T22:31:29.160Z,9.13
2022-12-29T22:33:32.199Z,9.02
2022-12-29T22:35:35.098Z,7.95
2022-12-29T22:39:40.838Z,8.68
2022-12-29T22:41:43.878Z,8.05
2022-12-29T22:43:47.394Z,7.93
2022-12-29T22:45:50.208Z,8.43
2022-12-29T22:47:52.485Z,8.05
2022-12-29T22:49:54.842Z,7.70
2022-12-29T22:51:58.573Z,7.88
2022-12-29T22:54:00.748Z,8.25
2022-12-29T22:56:06.991Z,8.05
2022-12-29T22:58:09.750Z,8.02
2022-12-29T23:00:13.161Z,7.75
2022-12-29T23:02:15.725Z,7.13
2022-12-29T23:05:01.684Z,7.43
2022-12-29T23:06:42.010Z,7.82
2022-12-29T23:08:44.590Z,9.35
2022-12-29T23:10:48.209Z,8.70
2022-12-29T23:14:53.291Z,7.55
2022-12-29T23:18:58.705Z,9.00
2022-12-29T23:21:00.927Z,8.77
2022-12-29T23:25:06.352Z,9.20
2022-12-29T23:27:08.499Z,8.93
2022-12-29T23:29:14.240Z,8.05
2022-12-29T23:31:16.775Z,7.78
2022-12-29T23:33:19.617Z,8.88
2022-12-29T23:37:24.855Z,7.65
2022-12-29T23:39:29.159Z,7.97
2022-12-29T23:41:31.877Z,8.15
2022-12-29T23:45:38.360Z,7.43
2022-12-29T23:47:41.832Z,7.15
2022-12-29T23:49:44.437Z,7.45
2022-12-29T23:51:46.748Z,7.38
2022-12-29T23:53:49.667Z,7.15
2022-12-29T23:55:55.615Z,7.10
2022-12-29T23:58:16.181Z,7.85
